Time;durP1;ratioP1;P1;durP2;ratioP2;P2;SDS_P1;SDS_P2;PMS_P1;PMS_P2;Temp;Humidity;BMP_temperature;BMP_pressure;BME280_temperature;BME280_humidity;BME280_pressure;Samples;Min_cycle;Max_cycle;Signal;HPM_P1;HPM_P2
2021/03/16 00:01:02;;;;;;;5.90;1.60;;;;;;;;;;5153780;27;20200;-73
2021/03/16 00:03:28;;;;;;;1.30;1.20;;;;;;;;;;5154213;27;20235;-72
2021/03/16 00:05:55;;;;;;;2.20;1.63;;;;;;;;;;5153721;27;20281;-72
2021/03/16 00:08:21;;;;;;;1.50;1.30;;;;;;;;;;5153697;27;20208;-72
2021/03/16 00:10:47;;;;;;;1.95;1.60;;;;;;;;;;5153514;27;20278;-72
2021/03/16 00:13:13;;;;;;;2.67;1.73;;;;;;;;;;5153962;27;20260;-72
2021/03/16 00:15:40;;;;;;;5.68;1.40;;;;;;;;;;5154037;27;20218;-73
2021/03/16 00:18:07;;;;;;;2.75;1.83;;;;;;;;;;5153479;27;20240;-73
2021/03/16 00:20:34;;;;;;;3.95;2.47;;;;;;;;;;5153409;27;20220;-73
2021/03/16 00:23:01;;;;;;;1.15;1.05;;;;;;;;;;5153758;27;20600;-72
2021/03/16 00:25:27;;;;;;;3.63;1.65;;;;;;;;;;5153500;27;20201;-72
2021/03/16 00:27:53;;;;;;;2.03;1.73;;;;;;;;;;5153039;27;20232;-73
2021/03/16 00:30:20;;;;;;;1.90;1.15;;;;;;;;;;5153188;27;20184;-74
2021/03/16 00:32:46;;;;;;;1.75;1.58;;;;;;;;;;5153511;27;20207;-72
2021/03/16 00:35:12;;;;;;;1.90;1.70;;;;;;;;;;5153383;27;20290;-71
2021/03/16 00:37:39;;;;;;;6.55;2.40;;;;;;;;;;5153658;27;20186;-72
2021/03/16 00:40:07;;;;;;;3.38;1.13;;;;;;;;;;5153561;27;20206;-71
2021/03/16 00:42:33;;;;;;;1.10;0.90;;;;;;;;;;5153075;27;20285;-72
2021/03/16 00:44:59;;;;;;;2.75;2.22;;;;;;;;;;5153345;27;20283;-71
2021/03/16 00:47:25;;;;;;;5.22;1.70;;;;;;;;;;5153491;27;20217;-73
2021/03/16 00:49:51;;;;;;;5.03;1.13;;;;;;;;;;5153695;27;20623;-73
2021/03/16 00:52:17;;;;;;;1.80;1.58;;;;;;;;;;5156859;27;20294;-72
2021/03/16 00:54:43;;;;;;;2.28;1.63;;;;;;;;;;5157217;27;20877;-73
2021/03/16 00:57:11;;;;;;;1.30;1.15;;;;;;;;;;5157163;27;20204;-71
2021/03/16 00:59:37;;;;;;;1.48;1.13;;;;;;;;;;5157674;27;20401;-72
2021/03/16 01:02:03;;;;;;;2.65;2.20;;;;;;;;;;5156884;27;20216;-73
2021/03/16 01:04:29;;;;;;;2.22;1.63;;;;;;;;;;5156824;27;20200;-72
2021/03/16 01:06:55;;;;;;;2.25;1.63;;;;;;;;;;5157243;27;20186;-72
2021/03/16 01:09:21;;;;;;;3.55;1.42;;;;;;;;;;5156886;27;20200;-73
2021/03/16 01:11:47;;;;;;;4.60;1.63;;;;;;;;;;5156685;27;20246;-73
2021/03/16 01:14:14;;;;;;;2.20;1.30;;;;;;;;;;5157118;27;20178;-72
2021/03/16 01:16:40;;;;;;;1.95;1.50;;;;;;;;;;5157271;27;20516;-71
2021/03/16 01:19:06;;;;;;;3.50;2.38;;;;;;;;;;5156554;27;20236;-72
2021/03/16 01:21:32;;;;;;;2.38;1.33;;;;;;;;;;5156366;27;20230;-72
2021/03/16 01:23:58;;;;;;;1.73;1.53;;;;;;;;;;5156170;27;20649;-72
2021/03/16 01:26:24;;;;;;;7.93;1.55;;;;;;;;;;5156973;27;20784;-72
2021/03/16 01:28:50;;;;;;;2.20;1.50;;;;;;;;;;5156845;27;20219;-72
2021/03/16 01:31:17;;;;;;;2.95;1.88;;;;;;;;;;5156468;27;20190;-72
2021/03/16 01:33:43;;;;;;;4.30;1.23;;;;;;;;;;5157233;27;20197;-72
2021/03/16 01:36:09;;;;;;;3.40;1.50;;;;;;;;;;5156121;27;20713;-73
2021/03/16 01:38:35;;;;;;;1.55;1.17;;;;;;;;;;5156552;27;20201;-72
2021/03/16 01:41:01;;;;;;;1.40;1.30;;;;;;;;;;5156644;27;20296;-72
2021/03/16 01:43:28;;;;;;;2.28;1.65;;;;;;;;;;5155909;27;20239;-72
2021/03/16 01:45:54;;;;;;;2.08;1.30;;;;;;;;;;5156111;27;20228;-72
2021/03/16 01:48:22;;;;;;;2.40;1.25;;;;;;;;;;5156342;27;20185;-72
2021/03/16 01:50:49;;;;;;;3.80;1.50;;;;;;;;;;5155596;27;20195;-72
2021/03/16 01:53:15;;;;;;;1.50;1.15;;;;;;;;;;5156108;27;20635;-72
2021/03/16 01:55:42;;;;;;;3.95;1.90;;;;;;;;;;5156240;27;20193;-72
2021/03/16 01:58:08;;;;;;;2.05;1.15;;;;;;;;;;5156125;27;20287;-72
2021/03/16 02:00:36;;;;;;;1.10;1.00;;;;;;;;;;5156281;27;20758;-71
2021/03/16 02:03:02;;;;;;;3.03;1.92;;;;;;;;;;5155859;27;20578;-72
2021/03/16 02:05:29;;;;;;;2.85;1.35;;;;;;;;;;5156046;27;20549;-73
2021/03/16 02:07:59;;;;;;;6.97;2.03;;;;;;;;;;5155785;27;20295;-72
2021/03/16 02:10:28;;;;;;;2.55;1.23;;;;;;;;;;5155838;27;20284;-72
2021/03/16 02:12:59;;;;;;;1.10;0.90;;;;;;;;;;5156048;27;20211;-72
2021/03/16 02:15:28;;;;;;;3.15;1.35;;;;;;;;;;5155667;27;20535;-73
2021/03/16 02:17:55;;;;;;;2.28;1.35;;;;;;;;;;5155780;27;20240;-72
2021/03/16 02:20:36;;;;;;;3.10;2.15;;;;;;;;;;5154730;27;20628;-72
2021/03/16 02:23:02;;;;;;;1.98;1.25;;;;;;;;;;5155861;27;20199;-78
2021/03/16 02:25:34;;;;;;;1.90;0.90;;;;;;;;;;5155420;27;20272;-72
2021/03/16 02:28:18;;;;;;;0.80;0.70;;;;;;;;;;5155688;27;20573;-73
2021/03/16 02:30:46;;;;;;;1.90;1.42;;;;;;;;;;5155034;27;20201;-72
2021/03/16 02:33:13;;;;;;;1.10;1.00;;;;;;;;;;5155279;27;20189;-72
2021/03/16 02:35:39;;;;;;;2.08;1.05;;;;;;;;;;5155225;27;20236;-71
2021/03/16 02:38:06;;;;;;;1.60;1.27;;;;;;;;;;5154902;27;20567;-72
2021/03/16 02:40:35;;;;;;;4.50;1.80;;;;;;;;;;5155094;27;20223;-72
2021/03/16 02:43:02;;;;;;;2.40;1.40;;;;;;;;;;5155174;27;20569;-73
2021/03/16 02:45:29;;;;;;;2.05;1.00;;;;;;;;;;5154389;27;20288;-72
2021/03/16 02:47:57;;;;;;;2.85;1.23;;;;;;;;;;5154543;27;20220;-72
2021/03/16 02:50:23;;;;;;;1.30;1.20;;;;;;;;;;5154447;27;20200;-72
2021/03/16 02:52:50;;;;;;;3.78;1.05;;;;;;;;;;5154428;27;20193;-71
2021/03/16 02:55:17;;;;;;;1.27;1.00;;;;;;;;;;5154498;27;20206;-73
2021/03/16 02:57:44;;;;;;;6.88;1.35;;;;;;;;;;5154523;27;20242;-73
2021/03/16 03:00:11;;;;;;;2.20;1.55;;;;;;;;;;5154350;27;20202;-72
2021/03/16 03:02:39;;;;;;;3.85;1.25;;;;;;;;;;5154430;27;20239;-73
2021/03/16 03:05:08;;;;;;;3.65;1.20;;;;;;;;;;5154334;27;20188;-72
2021/03/16 03:07:34;;;;;;;5.03;1.83;;;;;;;;;;5154228;27;20212;-72
2021/03/16 03:10:00;;;;;;;1.85;1.08;;;;;;;;;;5154499;27;20204;-71
2021/03/16 03:12:26;;;;;;;2.22;1.70;;;;;;;;;;5154006;27;20208;-72
2021/03/16 03:14:52;;;;;;;2.60;1.85;;;;;;;;;;5153159;27;20202;-74
2021/03/16 03:17:18;;;;;;;1.90;1.33;;;;;;;;;;5154814;27;20176;-72
2021/03/16 03:19:44;;;;;;;1.35;0.80;;;;;;;;;;5154361;27;20446;-72
2021/03/16 03:22:15;;;;;;;1.20;1.10;;;;;;;;;;5154322;27;20212;-72
2021/03/16 03:24:45;;;;;;;0.93;0.80;;;;;;;;;;5154523;27;20626;-72
2021/03/16 03:27:16;;;;;;;0.80;0.63;;;;;;;;;;5154613;27;20277;-72
2021/03/16 03:29:43;;;;;;;3.08;1.40;;;;;;;;;;5154078;27;20698;-72
2021/03/16 03:32:09;;;;;;;2.03;1.20;;;;;;;;;;5154298;27;20546;-73
2021/03/16 03:34:36;;;;;;;3.13;1.20;;;;;;;;;;5154212;27;20200;-73
2021/03/16 03:37:03;;;;;;;1.70;0.70;;;;;;;;;;5153416;27;20657;-72
2021/03/16 03:39:31;;;;;;;1.67;1.08;;;;;;;;;;5154288;27;20235;-72
2021/03/16 03:41:57;;;;;;;0.80;0.70;;;;;;;;;;5153921;27;20744;-73
2021/03/16 03:44:24;;;;;;;2.17;1.73;;;;;;;;;;5153877;27;20199;-73
2021/03/16 03:46:51;;;;;;;1.27;1.17;;;;;;;;;;5153670;27;20215;-73
2021/03/16 03:49:17;;;;;;;1.75;1.13;;;;;;;;;;5153864;27;20318;-72
2021/03/16 03:51:44;;;;;;;3.72;2.13;;;;;;;;;;5154103;27;20649;-71
2021/03/16 03:54:10;;;;;;;5.32;1.75;;;;;;;;;;5154186;27;20666;-71
2021/03/16 03:56:37;;;;;;;2.55;1.70;;;;;;;;;;5153920;27;20251;-72
2021/03/16 03:59:04;;;;;;;1.40;1.30;;;;;;;;;;5154138;27;20201;-73
2021/03/16 04:01:30;;;;;;;1.27;0.88;;;;;;;;;;5153980;27;20218;-72
2021/03/16 04:03:57;;;;;;;2.45;1.83;;;;;;;;;;5153849;27;20223;-72
2021/03/16 04:06:24;;;;;;;1.30;1.20;;;;;;;;;;5153928;27;20218;-73
2021/03/16 04:08:50;;;;;;;1.95;1.60;;;;;;;;;;5153687;27;20569;-72
2021/03/16 04:11:16;;;;;;;0.95;0.95;;;;;;;;;;5154057;27;20605;-73
2021/03/16 04:13:44;;;;;;;5.53;2.05;;;;;;;;;;5153807;27;20189;-72
2021/03/16 04:16:11;;;;;;;2.05;1.65;;;;;;;;;;5153762;27;20284;-72
2021/03/16 04:18:37;;;;;;;5.22;2.08;;;;;;;;;;5154101;27;20207;-71
2021/03/16 04:21:03;;;;;;;7.97;2.80;;;;;;;;;;5153809;27;20227;-72
2021/03/16 04:23:29;;;;;;;1.83;1.52;;;;;;;;;;5154043;27;20180;-72
2021/03/16 04:25:55;;;;;;;2.20;1.25;;;;;;;;;;5155588;27;20255;-72
2021/03/16 04:28:21;;;;;;;2.90;1.60;;;;;;;;;;5158309;27;20252;-72
2021/03/16 04:30:48;;;;;;;1.40;1.20;;;;;;;;;;5157295;27;20200;-72
2021/03/16 04:33:14;;;;;;;7.30;1.80;;;;;;;;;;5156964;27;20463;-73
2021/03/16 04:35:40;;;;;;;1.98;1.20;;;;;;;;;;5157757;27;20614;-70
2021/03/16 04:38:06;;;;;;;5.17;1.23;;;;;;;;;;5157029;27;20195;-72
2021/03/16 04:40:32;;;;;;;3.30;1.85;;;;;;;;;;5157969;27;20796;-73
2021/03/16 04:42:58;;;;;;;1.60;1.50;;;;;;;;;;5157738;27;20190;-72
2021/03/16 04:45:24;;;;;;;3.40;1.67;;;;;;;;;;5157657;27;20448;-72
2021/03/16 04:47:50;;;;;;;7.63;2.30;;;;;;;;;;5157236;27;20470;-71
2021/03/16 04:50:16;;;;;;;4.45;1.55;;;;;;;;;;5157537;27;20488;-71
2021/03/16 04:52:42;;;;;;;2.63;1.40;;;;;;;;;;5157388;27;20645;-73
2021/03/16 04:55:09;;;;;;;6.25;1.60;;;;;;;;;;5157387;27;20204;-72
2021/03/16 04:57:35;;;;;;;3.20;2.28;;;;;;;;;;5157765;27;20558;-72
2021/03/16 05:00:01;;;;;;;1.73;1.40;;;;;;;;;;5156663;27;20273;-73
2021/03/16 05:02:27;;;;;;;4.10;1.30;;;;;;;;;;5156475;27;20514;-73
2021/03/16 05:04:53;;;;;;;4.13;1.37;;;;;;;;;;5156920;27;20188;-72
2021/03/16 05:07:19;;;;;;;4.05;1.40;;;;;;;;;;5157205;27;20530;-71
2021/03/16 05:09:45;;;;;;;3.53;1.55;;;;;;;;;;5157267;27;20182;-73
2021/03/16 05:12:11;;;;;;;2.70;1.40;;;;;;;;;;5156868;27;20203;-72
2021/03/16 05:14:37;;;;;;;1.87;1.03;;;;;;;;;;5156347;27;20459;-72
2021/03/16 05:17:03;;;;;;;3.23;1.30;;;;;;;;;;5155940;27;20445;-72
2021/03/16 05:19:29;;;;;;;1.50;1.40;;;;;;;;;;5156714;27;20434;-72
2021/03/16 05:21:56;;;;;;;11.43;2.47;;;;;;;;;;5156382;27;20305;-71
2021/03/16 05:24:22;;;;;;;3.10;1.55;;;;;;;;;;5156999;27;20896;-71
2021/03/16 05:26:48;;;;;;;4.40;1.77;;;;;;;;;;5156823;27;20198;-72
2021/03/16 05:29:14;;;;;;;1.33;1.02;;;;;;;;;;5156309;27;20187;-72
2021/03/16 05:31:40;;;;;;;7.25;1.95;;;;;;;;;;5156402;27;20270;-73
2021/03/16 05:34:06;;;;;;;2.30;1.80;;;;;;;;;;5156987;27;20200;-72
2021/03/16 05:36:32;;;;;;;2.10;1.50;;;;;;;;;;5155988;27;20469;-72
2021/03/16 05:38:59;;;;;;;0.73;0.57;;;;;;;;;;5155841;27;20434;-72
2021/03/16 05:41:27;;;;;;;3.25;2.10;;;;;;;;;;5155855;27;20275;-73
2021/03/16 05:43:54;;;;;;;3.10;1.75;;;;;;;;;;5156301;27;20199;-73
2021/03/16 05:46:20;;;;;;;3.60;1.77;;;;;;;;;;5156347;27;20281;-70
2021/03/16 05:48:48;;;;;;;6.97;1.98;;;;;;;;;;5155702;27;20196;-73
2021/03/16 05:51:14;;;;;;;2.85;2.15;;;;;;;;;;5156032;27;20633;-72
2021/03/16 05:53:41;;;;;;;2.40;1.35;;;;;;;;;;5156043;27;20192;-72
2021/03/16 05:56:07;;;;;;;6.88;1.33;;;;;;;;;;5156572;27;20207;-72
2021/03/16 05:58:35;;;;;;;5.97;2.30;;;;;;;;;;5155673;27;20199;-73
2021/03/16 06:01:01;;;;;;;3.25;2.60;;;;;;;;;;5155604;27;20359;-71
2021/03/16 06:03:27;;;;;;;1.53;1.20;;;;;;;;;;5155857;27;20662;-71
2021/03/16 06:05:52;;;;;;;1.70;1.60;;;;;;;;;;5156429;27;20874;-71
2021/03/16 06:08:18;;;;;;;1.20;1.00;;;;;;;;;;5155937;27;21270;-72
2021/03/16 06:10:45;;;;;;;2.27;2.07;;;;;;;;;;5155757;27;20953;-73
2021/03/16 06:13:12;;;;;;;1.48;1.38;;;;;;;;;;5156384;27;20463;-72
2021/03/16 06:15:38;;;;;;;2.95;1.90;;;;;;;;;;5155419;27;20199;-72
2021/03/16 06:18:05;;;;;;;3.25;1.85;;;;;;;;;;5155973;27;20197;-71
2021/03/16 06:20:32;;;;;;;3.80;1.40;;;;;;;;;;5155159;27;20189;-73
2021/03/16 06:23:02;;;;;;;8.88;1.83;;;;;;;;;;5155034;27;20281;-73
2021/03/16 06:25:29;;;;;;;1.55;1.38;;;;;;;;;;5155439;27;20192;-73
2021/03/16 06:27:59;;;;;;;5.78;1.55;;;;;;;;;;5155626;27;20888;-73
2021/03/16 06:30:27;;;;;;;2.20;1.23;;;;;;;;;;5155136;27;20207;-73
2021/03/16 06:32:52;;;;;;;2.67;1.23;;;;;;;;;;5155970;27;20279;-74
2021/03/16 06:35:19;;;;;;;2.13;1.50;;;;;;;;;;5155741;27;20259;-73
2021/03/16 06:37:59;;;;;;;1.45;1.20;;;;;;;;;;5156584;27;20623;-73
2021/03/16 06:40:27;;;;;;;2.35;1.83;;;;;;;;;;5156256;27;20214;-74
2021/03/16 06:43:01;;;;;;;3.72;1.52;;;;;;;;;;5154932;27;20318;-74
2021/03/16 06:45:30;;;;;;;2.47;1.77;;;;;;;;;;5155344;27;20213;-73
2021/03/16 06:47:56;;;;;;;2.97;2.13;;;;;;;;;;5134922;27;20192;-74
2021/03/16 06:50:27;;;;;;;2.80;2.17;;;;;;;;;;5135028;27;20250;-75
2021/03/16 06:52:53;;;;;;;4.40;1.58;;;;;;;;;;5135211;27;20521;-74
2021/03/16 06:55:19;;;;;;;2.47;1.50;;;;;;;;;;5134566;27;20311;-75
2021/03/16 06:57:46;;;;;;;3.10;1.40;;;;;;;;;;5134748;27;20499;-74
2021/03/16 07:00:12;;;;;;;2.78;1.58;;;;;;;;;;5134164;27;20194;-73
2021/03/16 07:02:39;;;;;;;2.33;2.00;;;;;;;;;;5134533;27;20251;-73
2021/03/16 07:05:05;;;;;;;1.60;1.10;;;;;;;;;;5134388;27;20208;-73
2021/03/16 07:07:32;;;;;;;1.90;1.42;;;;;;;;;;5134173;27;20241;-73
2021/03/16 07:10:00;;;;;;;2.05;1.27;;;;;;;;;;5134153;27;20225;-73
2021/03/16 07:12:32;;;;;;;2.60;1.30;;;;;;;;;;5134101;27;20177;-74
2021/03/16 07:14:59;;;;;;;2.58;1.55;;;;;;;;;;5134253;27;20210;-73
2021/03/16 07:17:25;;;;;;;6.25;1.50;;;;;;;;;;5147668;27;20287;-73
2021/03/16 07:19:54;;;;;;;2.55;2.35;;;;;;;;;;5154617;27;20230;-74
2021/03/16 07:22:21;;;;;;;3.35;2.40;;;;;;;;;;5155122;27;20209;-74
2021/03/16 07:24:47;;;;;;;2.72;1.80;;;;;;;;;;5155184;27;20197;-74
2021/03/16 07:27:13;;;;;;;2.67;2.28;;;;;;;;;;5155481;27;20184;-74
2021/03/16 07:29:39;;;;;;;2.80;2.10;;;;;;;;;;5155012;27;20264;-74
2021/03/16 07:32:05;;;;;;;3.22;1.40;;;;;;;;;;5155203;27;20446;-74
2021/03/16 07:34:32;;;;;;;5.13;1.58;;;;;;;;;;5153820;27;20205;-75
2021/03/16 07:37:01;;;;;;;2.53;1.77;;;;;;;;;;5154022;27;20273;-74
2021/03/16 07:39:27;;;;;;;1.63;1.27;;;;;;;;;;5154683;27;20254;-75
2021/03/16 07:41:53;;;;;;;1.63;1.50;;;;;;;;;;5154741;27;20212;-73
2021/03/16 07:44:20;;;;;;;2.72;1.45;;;;;;;;;;5154691;27;20212;-74
2021/03/16 07:46:47;;;;;;;3.30;2.25;;;;;;;;;;5154600;27;20197;-74
2021/03/16 07:49:14;;;;;;;19.95;2.15;;;;;;;;;;5154550;27;20212;-74
2021/03/16 07:51:42;;;;;;;5.88;1.95;;;;;;;;;;5154731;27;20196;-74
2021/03/16 07:54:09;;;;;;;2.28;1.55;;;;;;;;;;5154588;27;20210;-74
2021/03/16 07:56:36;;;;;;;5.13;1.88;;;;;;;;;;5155034;27;20189;-74
2021/03/16 07:59:03;;;;;;;3.33;2.60;;;;;;;;;;5154923;27;20227;-73
2021/03/16 08:01:29;;;;;;;3.65;2.45;;;;;;;;;;5153047;27;20693;-74
2021/03/16 08:04:05;;;;;;;6.00;2.13;;;;;;;;;;5154351;27;20227;-73
2021/03/16 08:06:33;;;;;;;2.83;1.95;;;;;;;;;;5153861;27;20200;-74
2021/03/16 08:08:59;;;;;;;7.93;2.17;;;;;;;;;;5153846;27;20618;-74
2021/03/16 08:11:36;;;;;;;2.90;2.40;;;;;;;;;;5153743;27;20178;-74
2021/03/16 08:14:04;;;;;;;2.30;0.80;;;;;;;;;;5153559;27;20188;-73
2021/03/16 08:16:34;;;;;;;1.45;1.02;;;;;;;;;;5153624;27;20201;-73
2021/03/16 08:19:13;;;;;;;3.38;1.83;;;;;;;;;;5153796;27;20202;-75
2021/03/16 08:21:40;;;;;;;3.13;1.90;;;;;;;;;;5153128;27;20577;-74
2021/03/16 08:24:07;;;;;;;2.45;2.25;;;;;;;;;;5153983;27;20665;-74
2021/03/16 08:26:33;;;;;;;6.53;1.73;;;;;;;;;;5153955;27;20284;-74
2021/03/16 08:29:00;;;;;;;2.00;1.75;;;;;;;;;;5153182;27;20213;-74
2021/03/16 08:31:26;;;;;;;5.72;1.58;;;;;;;;;;5153068;27;20253;-74
2021/03/16 08:33:52;;;;;;;6.38;1.70;;;;;;;;;;5152894;27;20219;-73
2021/03/16 08:36:18;;;;;;;3.63;1.45;;;;;;;;;;5153016;27;20691;-74
2021/03/16 08:38:44;;;;;;;5.40;1.80;;;;;;;;;;5153568;27;20198;-74
2021/03/16 08:41:13;;;;;;;2.70;2.05;;;;;;;;;;5152982;27;20221;-73
2021/03/16 08:43:41;;;;;;;2.75;1.70;;;;;;;;;;5153781;27;20280;-73
2021/03/16 08:46:10;;;;;;;2.55;1.23;;;;;;;;;;5153436;27;20206;-73
2021/03/16 08:48:36;;;;;;;4.53;1.70;;;;;;;;;;5154037;27;20209;-72
2021/03/16 08:51:02;;;;;;;2.25;1.35;;;;;;;;;;5154054;27;20178;-73
2021/03/16 08:53:28;;;;;;;2.80;1.88;;;;;;;;;;5153931;27;20202;-75
2021/03/16 08:55:54;;;;;;;2.42;1.38;;;;;;;;;;5153781;27;20205;-73
2021/03/16 08:58:21;;;;;;;1.33;0.68;;;;;;;;;;5153301;27;20243;-73
2021/03/16 09:00:47;;;;;;;6.60;2.13;;;;;;;;;;5153795;27;20186;-73
2021/03/16 09:03:15;;;;;;;1.40;1.08;;;;;;;;;;5153921;27;20220;-73
2021/03/16 09:05:41;;;;;;;2.65;1.38;;;;;;;;;;5153776;27;20201;-72
2021/03/16 09:08:08;;;;;;;4.45;1.70;;;;;;;;;;5152744;27;20667;-75
2021/03/16 09:10:34;;;;;;;6.45;2.97;;;;;;;;;;5154883;27;20191;-73
2021/03/16 09:13:01;;;;;;;2.45;1.92;;;;;;;;;;5156156;27;20206;-73
2021/03/16 09:15:27;;;;;;;7.03;3.15;;;;;;;;;;5158038;27;20252;-73
2021/03/16 09:17:54;;;;;;;2.10;1.60;;;;;;;;;;5157949;27;20193;-73
2021/03/16 09:20:23;;;;;;;2.15;1.83;;;;;;;;;;5157253;27;20201;-71
2021/03/16 09:22:52;;;;;;;1.83;1.63;;;;;;;;;;5157264;27;20209;-71
2021/03/16 09:25:18;;;;;;;3.08;1.63;;;;;;;;;;5156758;27;20183;-74
2021/03/16 09:27:46;;;;;;;2.85;1.35;;;;;;;;;;5157137;27;20229;-73
2021/03/16 09:30:13;;;;;;;1.50;1.10;;;;;;;;;;5157571;27;20654;-74
2021/03/16 09:32:43;;;;;;;1.98;1.33;;;;;;;;;;5157258;27;20650;-74
2021/03/16 09:35:10;;;;;;;3.58;2.40;;;;;;;;;;5157151;27;20234;-74
2021/03/16 09:37:44;;;;;;;1.77;1.52;;;;;;;;;;5156182;27;20202;-74
2021/03/16 09:40:10;;;;;;;1.73;1.55;;;;;;;;;;5156407;27;20213;-73
2021/03/16 09:42:38;;;;;;;4.15;1.58;;;;;;;;;;5155949;27;20213;-74
2021/03/16 09:45:05;;;;;;;6.25;1.90;;;;;;;;;;5155975;27;20202;-73
2021/03/16 09:47:32;;;;;;;4.15;2.00;;;;;;;;;;5156032;27;20657;-73
2021/03/16 09:50:04;;;;;;;5.97;1.95;;;;;;;;;;5155956;27;20201;-73
2021/03/16 09:52:30;;;;;;;5.00;2.20;;;;;;;;;;5156343;27;20235;-74
2021/03/16 09:54:57;;;;;;;2.70;1.80;;;;;;;;;;5155873;27;20230;-74
2021/03/16 09:57:30;;;;;;;1.70;1.60;;;;;;;;;;5156370;27;20245;-74
2021/03/16 09:59:56;;;;;;;1.63;1.30;;;;;;;;;;5156602;27;20220;-73
2021/03/16 10:02:31;;;;;;;7.82;2.38;;;;;;;;;;5156876;27;20202;-73
2021/03/16 10:05:03;;;;;;;3.90;2.20;;;;;;;;;;5156332;27;20232;-73
2021/03/16 10:07:31;;;;;;;5.32;1.90;;;;;;;;;;5156136;27;20194;-73
2021/03/16 10:10:06;;;;;;;4.80;2.25;;;;;;;;;;5155900;27;20233;-73
2021/03/16 10:12:34;;;;;;;3.33;2.08;;;;;;;;;;5155674;27;20692;-73
2021/03/16 10:15:00;;;;;;;3.50;2.10;;;;;;;;;;5155530;27;20210;-72
2021/03/16 10:17:26;;;;;;;2.80;1.50;;;;;;;;;;5155859;27;20170;-73
2021/03/16 10:19:54;;;;;;;1.45;1.08;;;;;;;;;;5155749;27;20644;-74
2021/03/16 10:22:20;;;;;;;1.75;1.63;;;;;;;;;;5156001;27;20559;-75
2021/03/16 10:24:53;;;;;;;2.65;1.17;;;;;;;;;;5155640;27;20208;-73
2021/03/16 10:27:25;;;;;;;5.53;1.80;;;;;;;;;;5155977;27;20205;-73
2021/03/16 10:29:51;;;;;;;2.30;1.20;;;;;;;;;;5156406;27;20285;-75
2021/03/16 10:32:17;;;;;;;2.40;1.42;;;;;;;;;;5156527;27;20174;-76
2021/03/16 10:34:43;;;;;;;5.57;1.80;;;;;;;;;;5156269;27;20205;-75
2021/03/16 10:37:16;;;;;;;1.60;1.20;;;;;;;;;;5156193;27;20228;-73
2021/03/16 10:39:42;;;;;;;2.05;1.63;;;;;;;;;;5156352;27;20206;-74
2021/03/16 10:42:08;;;;;;;3.03;1.60;;;;;;;;;;5155785;27;20217;-74
2021/03/16 10:44:36;;;;;;;3.70;1.85;;;;;;;;;;5156432;27;20638;-75
2021/03/16 10:47:02;;;;;;;8.77;2.10;;;;;;;;;;5155559;27;20201;-75
2021/03/16 10:49:28;;;;;;;3.15;1.73;;;;;;;;;;5155044;27;20246;-75
2021/03/16 10:51:54;;;;;;;8.63;2.35;;;;;;;;;;5154852;27;20189;-75
2021/03/16 10:54:20;;;;;;;2.05;1.50;;;;;;;;;;5155351;27;20215;-75
2021/03/16 10:56:46;;;;;;;2.20;1.77;;;;;;;;;;5154606;27;20197;-74
2021/03/16 10:59:12;;;;;;;3.30;2.45;;;;;;;;;;5154993;27;20201;-75
2021/03/16 11:01:39;;;;;;;8.98;2.75;;;;;;;;;;5155120;27;20298;-75
2021/03/16 11:04:05;;;;;;;3.58;1.85;;;;;;;;;;5155099;27;20202;-76
2021/03/16 11:06:31;;;;;;;6.70;1.67;;;;;;;;;;5155622;27;20201;-75
2021/03/16 11:08:57;;;;;;;3.72;2.20;;;;;;;;;;5155660;27;20654;-75
2021/03/16 11:11:23;;;;;;;7.30;2.83;;;;;;;;;;5154211;27;20189;-74
2021/03/16 11:13:49;;;;;;;5.20;3.67;;;;;;;;;;5155643;27;20522;-75
2021/03/16 11:16:15;;;;;;;4.13;1.33;;;;;;;;;;5156387;27;20242;-75
2021/03/16 11:18:42;;;;;;;1.33;1.23;;;;;;;;;;5155741;27;20182;-76
2021/03/16 11:21:08;;;;;;;3.67;2.55;;;;;;;;;;5156088;27;20194;-75
2021/03/16 11:23:34;;;;;;;8.63;2.33;;;;;;;;;;5155743;27;20216;-75
2021/03/16 11:26:03;;;;;;;5.15;2.45;;;;;;;;;;5156631;27;20206;-76
2021/03/16 11:28:29;;;;;;;4.57;2.50;;;;;;;;;;5155802;27;20179;-77
2021/03/16 11:30:55;;;;;;;3.60;2.63;;;;;;;;;;5155834;27;20216;-75
2021/03/16 11:33:22;;;;;;;4.18;2.53;;;;;;;;;;5155583;27;20183;-75
2021/03/16 11:35:50;;;;;;;4.13;2.55;;;;;;;;;;5154698;27;20226;-76
2021/03/16 11:38:16;;;;;;;5.15;2.72;;;;;;;;;;5155363;27;20178;-76
2021/03/16 11:40:42;;;;;;;5.35;2.42;;;;;;;;;;5155572;27;20201;-75
2021/03/16 11:43:08;;;;;;;4.53;2.90;;;;;;;;;;5155322;27;20216;-75
2021/03/16 11:45:34;;;;;;;10.90;3.22;;;;;;;;;;5155513;27;20202;-75
2021/03/16 11:48:00;;;;;;;4.53;2.22;;;;;;;;;;5155898;27;20178;-75
2021/03/16 11:50:26;;;;;;;8.18;2.75;;;;;;;;;;5155483;27;20628;-73
2021/03/16 11:52:53;;;;;;;4.68;2.40;;;;;;;;;;5154938;27;20212;-76
2021/03/16 11:55:19;;;;;;;7.80;2.75;;;;;;;;;;5155255;27;20210;-74
2021/03/16 11:57:45;;;;;;;2.53;2.33;;;;;;;;;;5155194;27;20224;-74
2021/03/16 12:00:12;;;;;;;3.65;2.25;;;;;;;;;;5155440;27;20487;-74
2021/03/16 12:02:38;;;;;;;6.53;2.75;;;;;;;;;;5155447;27;20568;-75
2021/03/16 12:05:05;;;;;;;2.70;2.20;;;;;;;;;;5155749;27;20209;-77
2021/03/16 12:07:31;;;;;;;5.40;2.40;;;;;;;;;;5155299;27;20602;-74
2021/03/16 12:09:59;;;;;;;8.15;1.80;;;;;;;;;;5155298;27;20230;-75
2021/03/16 12:12:25;;;;;;;1.90;1.58;;;;;;;;;;5155174;27;20270;-74
2021/03/16 12:14:51;;;;;;;18.55;2.72;;;;;;;;;;5155583;27;20588;-74
2021/03/16 12:17:17;;;;;;;3.63;1.98;;;;;;;;;;5154834;27;20197;-75
2021/03/16 12:19:43;;;;;;;3.28;2.40;;;;;;;;;;5155204;27;20210;-74
2021/03/16 12:22:09;;;;;;;7.38;1.85;;;;;;;;;;5154905;27;20248;-75
2021/03/16 12:24:35;;;;;;;5.60;2.08;;;;;;;;;;5155435;27;20209;-75
2021/03/16 12:27:02;;;;;;;4.28;1.80;;;;;;;;;;5155296;27;20183;-73
2021/03/16 12:29:28;;;;;;;3.05;2.25;;;;;;;;;;5154671;27;20947;-75
2021/03/16 12:31:54;;;;;;;5.43;2.00;;;;;;;;;;5154672;27;20174;-75
2021/03/16 12:34:21;;;;;;;2.60;1.45;;;;;;;;;;5154496;27;20198;-75
2021/03/16 12:36:47;;;;;;;2.40;1.70;;;;;;;;;;5154583;27;20361;-75
2021/03/16 12:39:13;;;;;;;4.72;2.50;;;;;;;;;;5155034;27;20198;-75
2021/03/16 12:41:39;;;;;;;11.88;3.17;;;;;;;;;;5154950;27;20218;-75
2021/03/16 12:44:06;;;;;;;3.45;1.55;;;;;;;;;;5154799;27;20198;-75
2021/03/16 12:46:32;;;;;;;4.40;2.45;;;;;;;;;;5155669;27;20209;-73
2021/03/16 12:48:58;;;;;;;9.77;2.05;;;;;;;;;;5158559;27;20197;-76
2021/03/16 12:51:24;;;;;;;6.30;2.30;;;;;;;;;;5158573;27;20306;-75
2021/03/16 12:53:51;;;;;;;2.88;2.60;;;;;;;;;;5158298;27;20535;-75
2021/03/16 12:56:17;;;;;;;6.50;2.90;;;;;;;;;;5158793;27;20182;-75
2021/03/16 12:58:43;;;;;;;6.50;2.60;;;;;;;;;;5158422;27;20194;-75
2021/03/16 13:01:10;;;;;;;4.85;2.92;;;;;;;;;;5157620;27;20186;-73
2021/03/16 13:03:36;;;;;;;2.60;2.40;;;;;;;;;;5157535;27;20212;-74
2021/03/16 13:06:02;;;;;;;3.75;2.60;;;;;;;;;;5157334;27;20194;-74
2021/03/16 13:08:28;;;;;;;5.82;3.10;;;;;;;;;;5157501;27;20624;-75
2021/03/16 13:10:54;;;;;;;3.42;2.70;;;;;;;;;;5157795;27;20209;-73
2021/03/16 13:13:20;;;;;;;4.78;2.30;;;;;;;;;;5157604;27;20205;-75
2021/03/16 13:15:46;;;;;;;5.05;2.60;;;;;;;;;;5157497;27;20206;-73
2021/03/16 13:18:13;;;;;;;5.40;2.55;;;;;;;;;;5157285;27;20609;-74
2021/03/16 13:20:39;;;;;;;8.77;3.03;;;;;;;;;;5157274;27;20202;-76
2021/03/16 13:23:05;;;;;;;6.75;3.45;;;;;;;;;;5157345;27;20278;-75
2021/03/16 13:25:31;;;;;;;8.73;3.67;;;;;;;;;;5157000;27;20712;-75
2021/03/16 13:28:01;;;;;;;7.80;2.25;;;;;;;;;;5157059;27;20202;-75
2021/03/16 13:30:28;;;;;;;9.98;3.25;;;;;;;;;;5157409;27;20281;-76
2021/03/16 13:32:54;;;;;;;12.55;4.53;;;;;;;;;;5157069;27;20288;-76
2021/03/16 13:35:21;;;;;;;8.75;3.20;;;;;;;;;;5156824;27;20236;-74
2021/03/16 13:37:47;;;;;;;4.82;2.70;;;;;;;;;;5157423;27;20201;-74
2021/03/16 13:40:13;;;;;;;5.10;3.60;;;;;;;;;;5157837;27;20708;-74
2021/03/16 13:42:39;;;;;;;8.98;3.22;;;;;;;;;;5157163;27;20649;-74
2021/03/16 13:45:07;;;;;;;4.03;2.70;;;;;;;;;;5157412;27;20221;-75
2021/03/16 13:47:33;;;;;;;3.65;2.45;;;;;;;;;;5157350;27;20205;-74
2021/03/16 13:49:59;;;;;;;5.65;2.90;;;;;;;;;;5157591;27;20592;-75
2021/03/16 13:52:26;;;;;;;2.17;1.50;;;;;;;;;;5157679;27;20570;-74
2021/03/16 13:54:52;;;;;;;6.97;2.88;;;;;;;;;;5157046;27;20977;-76
2021/03/16 13:57:18;;;;;;;2.97;2.30;;;;;;;;;;5157151;27;20203;-76
2021/03/16 13:59:45;;;;;;;5.18;1.92;;;;;;;;;;5156090;27;20180;-75
2021/03/16 14:02:11;;;;;;;4.05;2.03;;;;;;;;;;5157185;27;20502;-75
2021/03/16 14:04:37;;;;;;;2.72;1.90;;;;;;;;;;5156668;27;20194;-74
2021/03/16 14:07:03;;;;;;;3.90;1.90;;;;;;;;;;5156631;27;20511;-75
2021/03/16 14:09:30;;;;;;;2.65;1.48;;;;;;;;;;5156988;27;20540;-73
2021/03/16 14:11:56;;;;;;;2.08;1.90;;;;;;;;;;5156419;27;20194;-74
2021/03/16 14:14:22;;;;;;;1.85;1.75;;;;;;;;;;5156643;27;20300;-74
2021/03/16 14:16:48;;;;;;;1.92;1.25;;;;;;;;;;5156351;27;20608;-75
2021/03/16 14:19:14;;;;;;;9.52;2.65;;;;;;;;;;5156129;27;20198;-75
2021/03/16 14:21:40;;;;;;;1.75;1.65;;;;;;;;;;5156630;27;20221;-73
2021/03/16 14:24:07;;;;;;;4.10;2.40;;;;;;;;;;5156111;27;20198;-75
2021/03/16 14:26:34;;;;;;;9.82;3.40;;;;;;;;;;5156027;27;20202;-74
2021/03/16 14:29:00;;;;;;;2.30;1.67;;;;;;;;;;5156657;27;20216;-75
2021/03/16 14:31:26;;;;;;;7.10;2.78;;;;;;;;;;5156681;27;20534;-74
2021/03/16 14:33:52;;;;;;;1.27;1.17;;;;;;;;;;5156670;27;20250;-75
2021/03/16 14:36:18;;;;;;;5.45;3.40;;;;;;;;;;5156379;27;20225;-75
2021/03/16 14:38:45;;;;;;;1.17;0.88;;;;;;;;;;5156916;27;20536;-76
2021/03/16 14:41:11;;;;;;;2.60;1.85;;;;;;;;;;5156385;27;20680;-74